VCBI/CMB METAR and TAF weather

Enter ICAO airport designator
Station Type Date Time Source
VCBI METAR 2021/07/24 20:10 UTC NOAA

VCBI 242010Z 18003KT 150V230 9999 SCT017 FEW019CB 25/24 Q1009 NOSIG RMK W


Station Type Date Time Source
VCBI Decoded METAR 2021/07/24 20:10 UTC NOAA

Katunayake, Sri Lanka (VCBI) 07-10N 079-53E 8M
Jul 24, 2021 - 04:10 PM EDT / 2021.07.24 2010 UTC
Wind: from the S (180 degrees) at 3 MPH (3 KT) (direction variable):0
Visibility: greater than 7 mile(s):0
Sky conditions: partly cloudy
Weather: Cumulonimbus clouds observed
Temperature: 77 F (25 C)
Dew Point: 75 F (24 C)
Relative Humidity: 94%
Pressure (altimeter): 29.80 in. Hg (1009 hPa)
ob: VCBI 242010Z 18003KT 150V230 9999 SCT017 FEW019CB 25/24 Q1009 NOSIG RMK W
cycle: 20

Station Type Date Time Source
VCBI TAF 2021/07/24 18:12 UTC NOAA

TAF TAF VCBI 241700Z 2418/2524 21010KT 9999 SCT018 TX31/2507Z TN26/2500Z PROB30
TEMPO 2420/2503 6000 -TSRA/SHRA BKN016 FEW018CB
BECMG 2501/2503 21010G20KT

Example: see airport list